createdAt,value
2023-04-23T00:00:59.198Z,100018.00
2023-04-23T00:02:02.478Z,100019.72
2023-04-23T00:03:08.268Z,100017.05
2023-04-23T00:04:12.844Z,100024.17
2023-04-23T00:05:15.865Z,100023.15
2023-04-23T00:06:19.142Z,100028.47
2023-04-23T00:07:21.935Z,100023.31
2023-04-23T00:08:25.777Z,100021.63
2023-04-23T00:09:30.316Z,100024.38
2023-04-23T00:10:33.095Z,100030.56
2023-04-23T00:11:35.821Z,100039.48
2023-04-23T00:12:39.000Z,100028.84
2023-04-23T00:13:41.647Z,100032.45
2023-04-23T00:14:44.050Z,100036.05
2023-04-23T00:15:46.695Z,100025.41
2023-04-23T00:16:49.366Z,100029.02
2023-04-23T00:17:51.611Z,100032.61
2023-04-23T00:18:54.059Z,100032.86
2023-04-23T00:19:56.372Z,100031.06
2023-04-23T00:20:58.875Z,100034.66
2023-04-23T00:22:01.093Z,100027.45
2023-04-23T00:23:03.416Z,100031.06
2023-04-23T00:24:06.224Z,100034.66
2023-04-23T00:25:09.650Z,100032.78
2023-04-23T00:26:12.398Z,100031.06
2023-04-23T00:27:15.213Z,100034.66
2023-04-23T00:28:20.806Z,100037.33
2023-04-23T00:29:23.113Z,100030.28
2023-04-23T00:30:25.441Z,100040.06
2023-04-23T00:31:27.940Z,100033.80
2023-04-23T00:32:30.423Z,100033.80
2023-04-23T00:33:32.749Z,100033.80
2023-04-23T00:34:35.073Z,100039.98
2023-04-23T00:35:37.356Z,100039.04
2023-04-23T00:36:39.738Z,100044.64
2023-04-23T00:37:43.132Z,100039.12
2023-04-23T00:38:45.421Z,100038.47
2023-04-23T00:39:47.957Z,100039.33
2023-04-23T00:40:50.854Z,100038.62
2023-04-23T00:41:53.182Z,100036.38
2023-04-23T00:42:57.157Z,100038.96
2023-04-23T00:44:00.149Z,100037.16
2023-04-23T00:45:03.640Z,100032.62
2023-04-23T00:46:06.770Z,100033.48
2023-04-23T00:47:10.157Z,100040.59
2023-04-23T00:48:13.613Z,100039.58
2023-04-23T00:49:19.488Z,100039.66
2023-04-23T00:50:22.003Z,100038.80
2023-04-23T00:51:24.801Z,100037.94
2023-04-23T00:52:27.724Z,100043.17
2023-04-23T00:53:30.332Z,100044.03
2023-04-23T00:54:32.819Z,100036.91
2023-04-23T00:55:35.276Z,100038.02
2023-04-23T00:56:38.192Z,100046.00
2023-04-23T00:57:41.699Z,100046.94
2023-04-23T00:58:44.354Z,100044.20
2023-04-23T00:59:46.685Z,100045.14
2023-04-23T01:00:50.878Z,100038.27
2023-04-23T01:01:55.140Z,100042.73
2023-04-23T01:02:57.973Z,100042.92
2023-04-23T01:04:01.603Z,100042.73
2023-04-23T01:05:06.734Z,100033.06
2023-04-23T01:06:09.435Z,100041.90
2023-04-23T01:07:12.384Z,100041.04
2023-04-23T01:08:16.599Z,100044.56
2023-04-23T01:09:20.109Z,100039.48
2023-04-23T01:10:22.707Z,100034.17
2023-04-23T01:11:25.145Z,100037.77
2023-04-23T01:12:27.465Z,100045.83
2023-04-23T01:13:30.601Z,100036.30
2023-04-23T01:14:33.517Z,100039.81
2023-04-23T01:15:36.059Z,100046.92
2023-04-23T01:16:39.599Z,100041.69
2023-04-23T01:17:44.074Z,100048.81
2023-04-23T01:18:46.680Z,100041.77
2023-04-23T01:19:49.002Z,100038.45
2023-04-23T01:20:51.950Z,100038.28
2023-04-23T01:21:57.852Z,100047.02
2023-04-23T01:24:12.173Z,100037.60
2023-04-23T01:25:15.037Z,100043.92
2023-04-23T01:26:20.621Z,100047.53
2023-04-23T01:27:23.443Z,100045.65
2023-04-23T01:28:26.513Z,100043.15
2023-04-23T01:29:30.000Z,100047.37
2023-04-23T01:30:33.230Z,100044.09
2023-04-23T01:31:37.152Z,100044.09
2023-04-23T01:32:40.789Z,100047.61
2023-04-23T01:33:45.042Z,100039.63
2023-04-23T01:34:48.570Z,100044.95
2023-04-23T01:35:51.561Z,100044.09
2023-04-23T01:36:55.309Z,100044.09
2023-04-23T01:38:00.813Z,100043.23
2023-04-23T01:39:03.686Z,100048.55
2023-04-23T01:40:07.426Z,100044.25
2023-04-23T01:41:10.591Z,100049.76
2023-04-23T01:42:14.111Z,100045.38
2023-04-23T01:43:17.180Z,100049.76
2023-04-23T01:44:19.660Z,100043.59
2023-04-23T01:45:22.078Z,100053.28
2023-04-23T01:46:25.048Z,100046.98
2023-04-23T01:47:27.973Z,100047.18
2023-04-23T01:48:30.499Z,100048.13
2023-04-23T01:49:34.018Z,100049.92
2023-04-23T01:50:36.592Z,100053.67
2023-04-23T01:51:39.000Z,100053.67
2023-04-23T01:52:41.956Z,100052.73
2023-04-23T01:53:44.264Z,100056.17
2023-04-23T01:54:46.705Z,100057.11
2023-04-23T01:55:50.961Z,100052.73
2023-04-23T01:56:55.139Z,100053.67
2023-04-23T01:57:57.698Z,100058.98
2023-04-23T01:59:00.607Z,100051.02
2023-04-23T02:00:09.704Z,100061.81
2023-04-23T02:01:15.193Z,100053.83
2023-04-23T02:02:17.708Z,100059.23
2023-04-23T02:03:20.388Z,100054.77
2023-04-23T02:04:22.855Z,100059.15
2023-04-23T02:05:28.751Z,100060.01
2023-04-23T02:06:31.132Z,100064.38
2023-04-23T02:07:34.367Z,100066.19
2023-04-23T02:08:37.082Z,100073.22
2023-04-23T02:09:39.444Z,100063.52
2023-04-23T02:10:41.883Z,100061.81
2023-04-23T02:11:44.236Z,100066.34
2023-04-23T02:12:47.612Z,100065.41
2023-04-23T02:13:50.179Z,100062.74
2023-04-23T02:14:54.266Z,100064.63
2023-04-23T02:15:56.709Z,100063.87
2023-04-23T02:16:59.141Z,100062.94
2023-04-23T02:18:02.511Z,100068.25
2023-04-23T02:19:05.438Z,100068.41
2023-04-23T02:20:11.221Z,100064.81
2023-04-23T02:21:13.949Z,100064.81
2023-04-23T02:22:17.936Z,100067.47
2023-04-23T02:23:20.303Z,100070.13
2023-04-23T02:24:23.353Z,100066.69
2023-04-23T02:25:25.717Z,100059.66
2023-04-23T02:26:28.028Z,100066.77
2023-04-23T02:27:30.322Z,100061.53
2023-04-23T02:28:32.957Z,100067.63
2023-04-23T02:29:35.724Z,100064.97
2023-04-23T02:30:38.658Z,100069.34
2023-04-23T02:31:41.029Z,100065.91
2023-04-23T02:32:43.538Z,100066.84
2023-04-23T02:33:46.199Z,100068.88
2023-04-23T02:34:48.738Z,100069.73
2023-04-23T02:35:51.280Z,100064.42
2023-04-23T02:36:53.695Z,100076.95
2023-04-23T02:37:56.067Z,100068.20
2023-04-23T02:38:58.435Z,100074.30
2023-04-23T02:40:00.647Z,100077.78
2023-04-23T02:41:03.017Z,100075.91
2023-04-23T02:42:05.766Z,100079.50
2023-04-23T02:43:08.191Z,100076.09
2023-04-23T02:44:10.488Z,100074.37
2023-04-23T02:45:13.455Z,100075.31
2023-04-23T02:46:15.795Z,100076.25
2023-04-23T02:47:18.391Z,100078.83
2023-04-23T02:48:21.039Z,100069.22
2023-04-23T02:49:23.282Z,100078.28
2023-04-23T02:50:25.588Z,100072.97
2023-04-23T02:51:27.804Z,100073.98
2023-04-23T02:52:30.098Z,100081.88
2023-04-23T02:53:32.421Z,100076.41
2023-04-23T02:54:34.733Z,100072.97
2023-04-23T02:55:36.937Z,100081.88
2023-04-23T02:56:39.254Z,100079.30
2023-04-23T02:57:42.290Z,100082.88
2023-04-23T02:58:45.212Z,100076.90
2023-04-23T02:59:47.548Z,100078.77
2023-04-23T03:00:51.345Z,100077.65
2023-04-23T03:01:53.732Z,100083.83
2023-04-23T03:02:57.448Z,100078.70
2023-04-23T03:04:00.637Z,100077.84
2023-04-23T03:05:05.152Z,100074.31
2023-04-23T03:06:09.475Z,100077.05
2023-04-23T03:07:11.846Z,100080.64
2023-04-23T03:08:14.162Z,100076.19
2023-04-23T03:09:16.563Z,100089.39
2023-04-23T03:10:19.000Z,100089.47
2023-04-23T03:11:22.163Z,100083.38
2023-04-23T03:12:25.359Z,100084.23
2023-04-23T03:13:27.832Z,100089.39
2023-04-23T03:14:30.360Z,100089.39
2023-04-23T03:15:33.500Z,100084.95
2023-04-23T03:16:36.109Z,100084.95
2023-04-23T03:17:39.302Z,100092.05
2023-04-23T03:18:41.684Z,100094.70
2023-04-23T03:19:44.213Z,100090.26
2023-04-23T03:20:47.422Z,100099.16
2023-04-23T03:21:50.333Z,100100.02
2023-04-23T03:22:52.726Z,100100.88
2023-04-23T03:23:55.821Z,100091.12
2023-04-23T03:24:58.202Z,100101.74
2023-04-23T03:26:01.098Z,100096.43
2023-04-23T03:27:03.878Z,100102.75
2023-04-23T03:28:06.244Z,100091.12
2023-04-23T03:29:08.603Z,100107.98
2023-04-23T03:30:12.100Z,100105.48
2023-04-23T03:31:14.444Z,100105.48
2023-04-23T03:32:17.033Z,100101.03
2023-04-23T03:33:19.541Z,100109.86
2023-04-23T03:34:21.859Z,100114.23
2023-04-23T03:35:25.045Z,100109.94
2023-04-23T03:36:29.641Z,100111.66
2023-04-23T03:37:32.243Z,100113.45
2023-04-23T03:38:34.565Z,100118.62
2023-04-23T03:39:38.624Z,100115.02
2023-04-23T03:40:42.900Z,100111.43
2023-04-23T03:41:45.560Z,100119.55
2023-04-23T03:42:48.550Z,100110.64
2023-04-23T03:43:52.012Z,100115.95
2023-04-23T03:44:59.973Z,100122.20
2023-04-23T03:46:03.783Z,100113.45
2023-04-23T03:47:08.349Z,100119.55
2023-04-23T03:48:11.312Z,100118.54
2023-04-23T03:49:13.708Z,100115.02
2023-04-23T03:50:16.525Z,100119.47
2023-04-23T03:51:19.260Z,100115.02
2023-04-23T03:52:23.612Z,100121.98
2023-04-23T03:53:26.589Z,100121.20
2023-04-23T03:55:53.240Z,100113.45
2023-04-23T03:56:56.389Z,100125.65
2023-04-23T03:58:00.765Z,100122.92
2023-04-23T03:59:04.914Z,100125.47
2023-04-23T04:00:08.901Z,100128.91
2023-04-23T04:01:13.775Z,100127.89
2023-04-23T04:02:16.511Z,100131.41
2023-04-23T04:03:19.015Z,100131.34
2023-04-23T04:04:21.708Z,100133.92
2023-04-23T04:05:25.899Z,100133.84
2023-04-23T04:06:29.536Z,100134.70
2023-04-23T04:07:31.915Z,100140.02
2023-04-23T04:08:34.908Z,100141.73
2023-04-23T04:09:38.743Z,100141.73
2023-04-23T04:10:41.176Z,100135.48
2023-04-23T04:11:43.531Z,100141.66
2023-04-23T04:12:46.017Z,100146.87
2023-04-23T04:13:48.362Z,100145.07
2023-04-23T04:14:50.761Z,100146.72
2023-04-23T04:15:53.159Z,100143.13
2023-04-23T04:16:56.170Z,100139.53
2023-04-23T04:17:59.282Z,100143.98
2023-04-23T04:19:02.600Z,100148.44
2023-04-23T04:20:07.654Z,100154.46
2023-04-23T04:21:10.003Z,100153.45
2023-04-23T04:22:12.221Z,100149.85
2023-04-23T04:23:14.565Z,100153.30
2023-04-23T04:24:18.066Z,100144.35
2023-04-23T04:25:20.752Z,100149.52
2023-04-23T04:26:22.949Z,100148.58
2023-04-23T04:27:25.833Z,100142.33
2023-04-23T04:28:28.233Z,100152.02
2023-04-23T04:29:30.470Z,100152.80
2023-04-23T04:30:33.037Z,100150.93
2023-04-23T04:31:35.515Z,100151.71
2023-04-23T04:32:39.089Z,100152.49
2023-04-23T04:33:42.040Z,100151.52
2023-04-23T04:34:44.459Z,100155.75
2023-04-23T04:35:46.772Z,100156.53
2023-04-23T04:36:49.100Z,100156.45
2023-04-23T04:37:51.884Z,100155.44
2023-04-23T04:38:54.828Z,100157.16
2023-04-23T04:39:57.173Z,100155.28
2023-04-23T04:41:00.510Z,100156.89
2023-04-23T04:42:05.198Z,100162.13
2023-04-23T04:43:08.180Z,100156.73
2023-04-23T04:44:10.717Z,100159.31
2023-04-23T04:45:13.398Z,100157.52
2023-04-23T04:46:16.017Z,100167.13
2023-04-23T04:47:18.734Z,100168.85
2023-04-23T04:48:21.110Z,100168.78
2023-04-23T04:49:23.470Z,100156.34
2023-04-23T04:50:26.341Z,100160.61
2023-04-23T04:51:28.710Z,100164.98
2023-04-23T04:52:31.252Z,100165.69
2023-04-23T04:53:33.326Z,100163.03
2023-04-23T04:54:35.944Z,100168.27
2023-04-23T04:55:38.114Z,100171.79
2023-04-23T04:56:40.620Z,100170.84
2023-04-23T04:57:43.373Z,100168.97
2023-04-23T04:58:45.730Z,100175.07
2023-04-23T04:59:49.559Z,100173.27
2023-04-23T05:00:51.911Z,100174.02
2023-04-23T05:01:54.419Z,100178.48
2023-04-23T05:02:58.292Z,100174.80
2023-04-23T05:04:01.299Z,100169.40
2023-04-23T05:05:04.585Z,100175.58
2023-04-23T05:06:07.598Z,100175.50
2023-04-23T05:07:09.783Z,100170.09
2023-04-23T05:08:12.155Z,100176.13
2023-04-23T05:09:14.333Z,100177.84
2023-04-23T05:10:17.302Z,100184.88
2023-04-23T05:11:20.413Z,100181.28
2023-04-23T05:12:22.774Z,100184.69
2023-04-23T05:13:24.950Z,100170.53
2023-04-23T05:14:27.136Z,100178.34
2023-04-23T05:15:31.812Z,100184.61
2023-04-23T05:16:34.621Z,100179.20
2023-04-23T05:17:37.292Z,100179.20
2023-04-23T05:18:40.754Z,100179.05
2023-04-23T05:19:43.491Z,100176.38
2023-04-23T05:20:45.894Z,100180.77
2023-04-23T05:21:48.077Z,100183.34
2023-04-23T05:22:50.814Z,100188.59
2023-04-23T05:23:56.245Z,100187.64
2023-04-23T05:24:58.558Z,100192.77
2023-04-23T05:26:01.070Z,100187.29
2023-04-23T05:27:04.351Z,100195.19
2023-04-23T05:28:06.591Z,100191.59
2023-04-23T05:29:08.859Z,100193.23
2023-04-23T05:30:11.630Z,100193.15
2023-04-23T05:31:13.922Z,100187.74
2023-04-23T05:32:16.360Z,100192.13
2023-04-23T05:33:18.846Z,100198.11
2023-04-23T05:34:21.635Z,100191.84
2023-04-23T05:35:23.922Z,100192.70
2023-04-23T05:36:26.783Z,100195.23
2023-04-23T05:37:29.178Z,100195.07
2023-04-23T05:38:32.000Z,100195.84
2023-04-23T05:39:34.204Z,100196.59
2023-04-23T05:40:36.997Z,100198.31
2023-04-23T05:41:39.329Z,100200.81
2023-04-23T05:42:42.132Z,100201.59
2023-04-23T05:43:44.137Z,100200.64
2023-04-23T05:44:46.298Z,100201.42
2023-04-23T05:45:48.561Z,100201.25
2023-04-23T05:46:50.968Z,100207.24
2023-04-23T05:47:53.203Z,100201.83
2023-04-23T05:48:55.462Z,100199.95
2023-04-23T05:49:57.647Z,100202.44
2023-04-23T05:50:59.822Z,100202.27
2023-04-23T05:52:02.441Z,100211.98
2023-04-23T05:53:05.007Z,100209.98
2023-04-23T05:54:07.735Z,100209.81
2023-04-23T05:55:10.469Z,100212.39
2023-04-23T05:56:13.010Z,100212.22
2023-04-23T05:57:15.240Z,100210.33
2023-04-23T05:58:18.038Z,100215.58
2023-04-23T05:59:20.226Z,100213.56
2023-04-23T06:00:23.331Z,100208.06
2023-04-23T06:01:25.603Z,100209.70
2023-04-23T06:02:28.255Z,100217.53
2023-04-23T06:03:30.587Z,100211.08
2023-04-23T06:04:33.798Z,100212.68
2023-04-23T06:05:36.364Z,100211.56
2023-04-23T06:06:38.712Z,100214.91
2023-04-23T06:07:41.472Z,100220.94
2023-04-23T06:08:43.519Z,100216.25
2023-04-23T06:09:45.593Z,100212.55
2023-04-23T06:10:48.368Z,100212.38
2023-04-23T06:11:52.556Z,100214.87
2023-04-23T06:12:55.232Z,100219.17
2023-04-23T06:13:58.633Z,100212.59
2023-04-23T06:15:00.918Z,100218.61
2023-04-23T06:16:03.580Z,100215.67
2023-04-23T06:17:05.897Z,100217.19
2023-04-23T06:18:08.118Z,100218.73
2023-04-23T06:19:10.549Z,100219.32
2023-04-23T06:20:13.064Z,100222.63
2023-04-23T06:21:15.232Z,100224.09
2023-04-23T06:22:17.440Z,100226.39
2023-04-23T06:23:19.683Z,100226.89
2023-04-23T06:24:21.937Z,100222.23
2023-04-23T06:25:24.661Z,100222.70
2023-04-23T06:26:26.852Z,100225.09
2023-04-23T06:27:30.037Z,100229.11
2023-04-23T06:28:34.144Z,100229.66
2023-04-23T06:29:55.117Z,100224.81
2023-04-23T06:30:58.403Z,100232.33
2023-04-23T06:32:01.541Z,100228.52
2023-04-23T06:33:03.956Z,100230.91
2023-04-23T06:34:06.932Z,100231.36
2023-04-23T06:35:09.475Z,100232.89
2023-04-23T06:36:12.192Z,100227.36
2023-04-23T06:37:14.961Z,100235.05
2023-04-23T06:38:17.145Z,100231.24
2023-04-23T06:39:19.158Z,100234.68
2023-04-23T06:40:21.840Z,100231.91
2023-04-23T06:41:24.064Z,100231.91
2023-04-23T06:42:28.654Z,100233.53
2023-04-23T06:43:32.846Z,100235.25
2023-04-23T06:45:42.020Z,100241.99
2023-04-23T06:46:44.214Z,100236.66
2023-04-23T06:47:47.035Z,100238.27
2023-04-23T06:48:49.465Z,100234.55
2023-04-23T06:49:51.692Z,100232.64
2023-04-23T06:50:53.897Z,100236.84
2023-04-23T06:51:57.651Z,100242.05
2023-04-23T06:53:00.199Z,100238.23
2023-04-23T06:54:03.036Z,100234.51
2023-04-23T06:55:05.884Z,100237.84
2023-04-23T06:56:11.259Z,100236.80
2023-04-23T06:57:15.326Z,100240.95
2023-04-23T06:58:18.883Z,100242.58
2023-04-23T06:59:22.445Z,100244.20
2023-04-23T07:00:28.824Z,100238.69
2023-04-23T07:01:48.337Z,100243.70
2023-04-23T07:02:55.814Z,100241.70
2023-04-23T07:04:02.442Z,100239.69
2023-04-23T07:06:18.223Z,100229.58
2023-04-23T07:07:20.645Z,100238.20
2023-04-23T07:08:23.677Z,100238.00
2023-04-23T07:09:27.009Z,100235.89
2023-04-23T07:10:29.218Z,100239.31
2023-04-23T07:11:31.531Z,100232.67
2023-04-23T07:12:33.691Z,100233.33
2023-04-23T07:13:36.199Z,100231.21
2023-04-23T07:14:39.418Z,100234.41
2023-04-23T07:15:42.849Z,100234.20
2023-04-23T07:16:45.149Z,100232.95
2023-04-23T07:17:47.843Z,100238.72
2023-04-23T07:18:49.958Z,100241.95
2023-04-23T07:19:52.297Z,100237.11
2023-04-23T07:20:56.204Z,100239.58
2023-04-23T07:21:58.519Z,100241.09
2023-04-23T07:23:01.857Z,100236.39
2023-04-23T07:24:04.689Z,100236.18
2023-04-23T07:25:08.132Z,100240.54
2023-04-23T07:26:10.738Z,100238.52
2023-04-23T07:27:12.950Z,100236.59
2023-04-23T07:28:15.162Z,100248.05
2023-04-23T07:29:18.489Z,100241.73
2023-04-23T07:30:22.182Z,100243.24
2023-04-23T07:31:24.497Z,100243.97
2023-04-23T07:32:26.786Z,100243.86
2023-04-23T07:33:29.153Z,100247.19
2023-04-23T07:34:31.800Z,100243.44
2023-04-23T07:35:34.501Z,100241.52
2023-04-23T07:36:36.704Z,100242.20
2023-04-23T07:37:39.042Z,100249.02
2023-04-23T07:38:42.808Z,100245.17
2023-04-23T07:39:45.655Z,100243.24
2023-04-23T07:40:48.459Z,100246.43
2023-04-23T07:41:50.618Z,100242.58
2023-04-23T07:42:52.957Z,100244.19
2023-04-23T07:43:55.239Z,100252.87
2023-04-23T07:44:57.411Z,100248.98
2023-04-23T07:45:59.694Z,100245.97
2023-04-23T07:47:02.050Z,100243.94
2023-04-23T07:48:04.429Z,100244.47
2023-04-23T07:49:06.495Z,100249.58
2023-04-23T07:50:10.405Z,100245.72
2023-04-23T07:51:12.709Z,100248.08
2023-04-23T07:52:16.649Z,100241.64
2023-04-23T07:53:18.987Z,100249.32
2023-04-23T07:54:21.132Z,100249.96
2023-04-23T07:55:23.490Z,100251.45
2023-04-23T07:56:27.499Z,100250.37
2023-04-23T07:57:29.870Z,100244.66
2023-04-23T07:58:32.398Z,100252.48
2023-04-23T07:59:34.679Z,100248.61
2023-04-23T08:00:37.086Z,100253.75
2023-04-23T08:01:39.201Z,100249.84
2023-04-23T08:02:41.518Z,100242.33
2023-04-23T08:03:44.919Z,100246.50
2023-04-23T08:04:47.764Z,100250.64
2023-04-23T08:05:50.118Z,100240.57
2023-04-23T08:06:52.488Z,100243.89
2023-04-23T08:07:55.597Z,100244.63
2023-04-23T08:08:57.860Z,100239.86
2023-04-23T08:10:00.626Z,100243.18
2023-04-23T08:11:02.807Z,100241.13
2023-04-23T08:12:05.024Z,100235.53
2023-04-23T08:13:08.539Z,100241.53
2023-04-23T08:14:10.882Z,100241.38
2023-04-23T08:15:13.237Z,100239.33
2023-04-23T08:16:16.939Z,100234.81
2023-04-23T08:17:19.229Z,100238.13
2023-04-23T08:18:21.383Z,100233.50
2023-04-23T08:19:24.537Z,100234.95
2023-04-23T08:20:26.800Z,100236.44
2023-04-23T08:21:29.675Z,100230.83
2023-04-23T08:22:32.095Z,100228.77
2023-04-23T08:23:34.295Z,100237.42
2023-04-23T08:24:36.377Z,100234.39
2023-04-23T08:25:38.486Z,100227.07
2023-04-23T08:26:41.086Z,100237.35
2023-04-23T08:27:43.266Z,100229.77
2023-04-23T08:28:46.721Z,100232.09
2023-04-23T08:29:48.978Z,100230.03
2023-04-23T08:30:51.146Z,100220.88
2023-04-23T08:31:54.384Z,100230.51
2023-04-23T08:32:57.125Z,100229.41
2023-04-23T08:33:59.455Z,100229.17
2023-04-23T08:35:01.763Z,100225.52
2023-04-23T08:36:04.113Z,100228.82
2023-04-23T08:37:11.745Z,100228.70
2023-04-23T08:38:11.864Z,100235.77
2023-04-23T08:39:14.281Z,100227.58
2023-04-23T08:40:17.516Z,100227.49
2023-04-23T08:41:22.769Z,100230.80
2023-04-23T08:42:28.638Z,100231.41
2023-04-23T08:44:59.581Z,100226.52
2023-04-23T08:46:03.692Z,100220.89
2023-04-23T08:47:08.929Z,100219.67
2023-04-23T08:48:11.469Z,100224.80
2023-04-23T08:49:16.637Z,100216.62
2023-04-23T08:50:19.152Z,100218.33
2023-04-23T08:51:23.230Z,100220.87
2023-04-23T08:52:28.337Z,100216.34
2023-04-23T08:53:30.653Z,100223.44
2023-04-23T08:54:34.535Z,100220.38
2023-04-23T08:55:36.797Z,100220.14
2023-04-23T08:56:41.468Z,100219.05
2023-04-23T08:57:45.470Z,100217.91
2023-04-23T08:58:50.245Z,100214.98
2023-04-23T08:59:52.751Z,100225.49
2023-04-23T09:00:57.366Z,100220.84
2023-04-23T09:02:00.572Z,100219.75
2023-04-23T09:03:04.780Z,100214.94
2023-04-23T09:04:08.212Z,100217.63
2023-04-23T09:05:13.046Z,100215.67
2023-04-23T09:06:15.331Z,100214.45
2023-04-23T09:07:18.606Z,100207.23
2023-04-23T09:08:21.338Z,100208.83
2023-04-23T09:09:24.131Z,100206.01
2023-04-23T09:10:26.985Z,100209.28
2023-04-23T09:11:30.142Z,100204.62
2023-04-23T09:12:36.901Z,100208.05
2023-04-23T09:13:39.106Z,100210.62
2023-04-23T09:14:41.776Z,100211.22
2023-04-23T09:15:44.932Z,100209.14
2023-04-23T09:16:47.378Z,100205.31
2023-04-23T09:17:50.298Z,100212.41
2023-04-23T09:18:54.515Z,100202.37
2023-04-23T09:19:57.733Z,100205.79
2023-04-23T09:21:01.889Z,100204.08
2023-04-23T09:22:04.320Z,100203.09
2023-04-23T09:23:07.461Z,100209.09
2023-04-23T09:24:09.870Z,100204.55
2023-04-23T09:25:14.311Z,100200.88
2023-04-23T09:26:20.992Z,100195.28
2023-04-23T09:27:24.980Z,100189.73
2023-04-23T09:28:37.621Z,100192.18
2023-04-23T09:29:43.658Z,100199.02
2023-04-23T09:30:48.120Z,100192.78
2023-04-23T09:31:53.407Z,100193.03
2023-04-23T09:32:58.083Z,100200.13
2023-04-23T09:34:00.482Z,100202.09
2023-04-23T09:35:08.207Z,100203.80
2023-04-23T09:36:15.841Z,100196.45
2023-04-23T09:37:18.073Z,100195.59
2023-04-23T09:38:20.895Z,100192.78
2023-04-23T09:39:23.675Z,100188.12
2023-04-23T09:40:26.818Z,100188.00
2023-04-23T09:41:29.287Z,100186.16
2023-04-23T09:42:32.937Z,100187.14
2023-04-23T09:43:35.035Z,100185.43
2023-04-23T09:44:37.366Z,100194.49
2023-04-23T09:45:51.710Z,100188.38
2023-04-23T09:46:54.201Z,100186.19
2023-04-23T09:47:57.275Z,100189.27
2023-04-23T09:49:01.752Z,100188.41
2023-04-23T09:50:04.972Z,100180.58
2023-04-23T09:51:07.197Z,100187.20
2023-04-23T09:52:09.402Z,100188.30
2023-04-23T09:53:13.468Z,100194.09
2023-04-23T09:55:33.067Z,100188.84
2023-04-23T09:56:36.122Z,100187.67
2023-04-23T09:57:41.179Z,100198.80
2023-04-23T09:58:45.556Z,100186.00
2023-04-23T09:59:51.543Z,100191.02
2023-04-23T10:00:53.167Z,100189.45
2023-04-23T10:01:56.311Z,100188.36
2023-04-23T10:02:59.379Z,100184.08
2023-04-23T10:04:01.838Z,100189.61
2023-04-23T10:05:24.321Z,100183.50
2023-04-23T10:07:39.782Z,100180.53
2023-04-23T10:08:42.768Z,100188.36
2023-04-23T10:09:45.117Z,100179.07
2023-04-23T10:11:02.433Z,100180.41
2023-04-23T10:11:52.897Z,100176.34
2023-04-23T10:12:55.968Z,100179.27
2023-04-23T10:13:58.334Z,100179.72
2023-04-23T10:15:00.609Z,100181.06
2023-04-23T10:16:14.455Z,100179.67
2023-04-23T10:17:10.772Z,100179.17
2023-04-23T10:18:15.560Z,100187.73
2023-04-23T10:19:21.488Z,100181.09
2023-04-23T10:20:25.049Z,100178.88
2023-04-23T10:21:39.449Z,100174.73
2023-04-23T10:22:37.144Z,100177.86
2023-04-23T10:23:42.919Z,100180.30
2023-04-23T10:24:49.469Z,100183.47
2023-04-23T10:25:54.346Z,100177.80
2023-04-23T10:26:59.810Z,100173.14
2023-04-23T10:28:03.974Z,100176.56
2023-04-23T10:29:10.081Z,100171.05
2023-04-23T10:30:13.415Z,100175.32
2023-04-23T10:31:18.830Z,100182.41
2023-04-23T10:32:21.392Z,100175.32
2023-04-23T10:33:30.896Z,100176.90
2023-04-23T10:34:31.704Z,100173.09
2023-04-23T10:35:34.377Z,100180.03
2023-04-23T10:36:38.524Z,100168.88
2023-04-23T10:37:41.666Z,100171.31
2023-04-23T10:38:54.941Z,100162.97
2023-04-23T10:39:54.301Z,100165.24
2023-04-23T10:41:00.178Z,100167.80
2023-04-23T10:42:04.653Z,100168.66
2023-04-23T10:43:06.912Z,100169.25
2023-04-23T10:44:15.886Z,100164.72
2023-04-23T10:46:30.621Z,100172.67
2023-04-23T10:47:33.021Z,100164.59
2023-04-23T10:48:54.028Z,100168.99
2023-04-23T10:49:56.397Z,100167.03
2023-04-23T10:51:14.619Z,100165.87
2023-04-23T10:53:21.359Z,100163.41
2023-04-23T10:54:27.182Z,100169.63
2023-04-23T10:55:30.910Z,100161.80
2023-04-23T10:56:33.332Z,100168.18
2023-04-23T10:57:39.059Z,100157.40
2023-04-23T10:58:49.478Z,100161.80
2023-04-23T10:59:54.857Z,100155.42
2023-04-23T11:00:57.498Z,100162.79
2023-04-23T11:02:08.527Z,100158.65
2023-04-23T11:03:41.415Z,100164.77
2023-04-23T11:04:46.226Z,100161.08
2023-04-23T11:05:50.039Z,100159.57
2023-04-23T11:06:55.475Z,100161.70
2023-04-23T11:09:43.505Z,100163.61
2023-04-23T11:12:12.572Z,100152.50
2023-04-23T11:13:23.027Z,100155.87
2023-04-23T11:14:44.616Z,100157.31
2023-04-23T11:15:46.922Z,100152.77
2023-04-23T11:16:50.009Z,100154.88
2023-04-23T11:17:56.108Z,100148.94
2023-04-23T11:20:20.963Z,100158.89
2023-04-23T11:21:43.899Z,100150.05
2023-04-23T11:22:48.148Z,100150.91
2023-04-23T11:23:50.414Z,100156.17
2023-04-23T11:24:52.921Z,100154.46
2023-04-23T11:25:55.105Z,100155.18
2023-04-23T11:26:58.176Z,100146.23
2023-04-23T11:28:00.252Z,100147.78
2023-04-23T11:29:05.152Z,100152.19
2023-04-23T11:30:16.380Z,100150.21
2023-04-23T11:31:19.963Z,100148.37
2023-04-23T11:32:23.230Z,100149.67
2023-04-23T11:33:25.633Z,100141.58
2023-04-23T11:34:28.476Z,100153.09
2023-04-23T11:35:31.290Z,100144.28
2023-04-23T11:36:35.671Z,100140.73
2023-04-23T11:38:56.605Z,100139.75
2023-04-23T11:40:02.563Z,100140.86
2023-04-23T11:41:05.874Z,100133.49
2023-04-23T11:43:28.820Z,100136.92
2023-04-23T11:44:31.063Z,100137.90
2023-04-23T11:45:33.315Z,100144.86
2023-04-23T11:46:36.320Z,100136.61
2023-04-23T11:47:39.087Z,100133.91
2023-04-23T11:48:41.584Z,100130.52
2023-04-23T11:49:45.034Z,100131.52
2023-04-23T11:50:48.058Z,100131.52
2023-04-23T11:51:50.307Z,100134.08
2023-04-23T11:52:53.094Z,100124.14
2023-04-23T11:54:04.044Z,100132.06
2023-04-23T11:55:07.709Z,100133.91
2023-04-23T11:56:10.733Z,100135.20
2023-04-23T11:57:12.890Z,100139.88
2023-04-23T11:58:17.417Z,100133.77
2023-04-23T11:59:20.627Z,100137.45
2023-04-23T12:00:26.460Z,100131.06
2023-04-23T12:01:47.325Z,100142.44
2023-04-23T12:02:57.794Z,100139.16
2023-04-23T12:04:00.369Z,100133.49
2023-04-23T12:05:05.153Z,100136.46
2023-04-23T12:06:07.630Z,100128.37
2023-04-23T12:07:19.603Z,100128.37
2023-04-23T12:08:18.903Z,100131.78
2023-04-23T12:09:23.518Z,100131.78
2023-04-23T12:10:26.614Z,100132.64
2023-04-23T12:11:28.925Z,100121.72
2023-04-23T12:12:35.504Z,100118.30
2023-04-23T12:13:40.580Z,100121.58
2023-04-23T12:14:43.764Z,100113.36
2023-04-23T12:15:51.109Z,100125.81
2023-04-23T12:16:54.303Z,100119.60
2023-04-23T12:18:09.477Z,100118.45
2023-04-23T12:19:17.822Z,100120.16
2023-04-23T12:20:21.537Z,100120.42
2023-04-23T12:21:25.992Z,100112.06
2023-04-23T12:22:27.965Z,100120.59
2023-04-23T12:23:31.172Z,100117.36